Aérodrome :
LOGIN :

S'inscrire | Disclaimer

   EN    FR    IT 

 










Légende :    VFR   VFR Marginal   IFR   IFR Intensif   IFR Très Intensif
Visi : 
Plafond : 
>= 8 km
>= 3000ft
5 à 8 km
1000 à 3000 ft
1500m à 5 km
500 à 1000 ft
800 à 1500m
200 à 500 ft
< 800m
< 200 ft
Symboles :   Orages  Brouillard  Fortes neiges  Fortes précipitations  Vent > 20 kt
SIGMETs :   Divers  Orages  Givrage  Turbulence  Onde Orograph.  Cendres Volcan.






- Altitude de l'aérodrome : 268 ft
- Code IATA : BFS


EGAA - Belfast Aldergrove

DERNIER METAR :
  • 171520Z 22007KT 9999 SCT040 04/03 Q1010

METARs EXPIRÉS :
  • 171450Z 22007KT 9999 FEW028 BKN047 04/03 Q1009
  • 171420Z 25009KT 9999 FEW014 BKN033 04/03 Q1009
  • 171350Z 26012KT 9999 -RA FEW016 BKN021 04/03 Q1008
  • 171320Z 25014KT 9999 -RA FEW018 BKN023 04/03 Q1008
  • 171250Z 23012KT 9999 -RA BKN019 04/02 Q1008

TAF TAF EGAA
Valide du 17 à 12h jusqu'au 18 à 12h UTC


171101Z 1712/1812 20008KT 9999 FEW030
BECMG 1712/1715 27012KT
PROB30
TEMPO 1713/1715 7000 SHRA BKN014
BECMG 1800/1803 20006KT



MET'MAP, la Météo Aéronautique d'un coup d'oeil ! - Copyright ORBIFLY Décembre 2007 - Disclaimer

ORBIFLY MET'MAP TEAM :

Programmation & Développement : Alexandra Zaïnal
Sur une idée originale de : Baudouin d'Aumeries
Assistance à la programmation : Marc-Olivier Méhu
Soutien technique & logistique : Manuel Goepfert

Contact : metmap@orbifly.com




SOURCES & CREDITS :

   NOAA